createdAt,value
2023-03-31T00:01:42.279Z,12.16
2023-03-31T00:04:14.310Z,10.26
2023-03-31T00:06:44.099Z,8.36
2023-03-31T00:09:19.053Z,15.01
2023-03-31T00:11:50.343Z,11.78
2023-03-31T00:14:21.467Z,12.16
2023-03-31T00:16:51.359Z,7.60
2023-03-31T00:19:21.424Z,9.88
2023-03-31T00:21:51.651Z,9.31
2023-03-31T00:24:21.487Z,11.97
2023-03-31T00:26:51.266Z,10.83
2023-03-31T00:29:21.194Z,10.45
2023-03-31T00:31:51.278Z,9.50
2023-03-31T00:34:22.068Z,12.16
2023-03-31T00:36:56.363Z,7.98
2023-03-31T00:39:28.048Z,13.11
2023-03-31T00:42:05.726Z,8.36
2023-03-31T00:44:59.783Z,8.74
2023-03-31T00:47:30.191Z,7.60
2023-03-31T00:50:00.690Z,8.55
2023-03-31T00:52:37.570Z,11.21
2023-03-31T00:55:16.848Z,7.79
2023-03-31T00:57:48.745Z,8.17
2023-03-31T01:00:19.015Z,7.60
2023-03-31T01:03:03.641Z,8.93
2023-03-31T01:06:03.157Z,8.93
2023-03-31T01:08:36.610Z,12.35
2023-03-31T01:11:10.637Z,7.60
2023-03-31T01:13:42.519Z,6.84
2023-03-31T01:16:12.673Z,9.50
2023-03-31T01:18:46.229Z,10.64
2023-03-31T01:21:47.215Z,10.07
2023-03-31T01:24:38.024Z,11.78
2023-03-31T01:27:56.166Z,11.97
2023-03-31T01:31:25.346Z,7.79
2023-03-31T01:34:32.639Z,10.26
2023-03-31T01:37:56.533Z,10.45
2023-03-31T01:40:59.880Z,8.93
2023-03-31T01:43:53.495Z,8.55
2023-03-31T01:46:54.818Z,11.78
2023-03-31T01:49:35.936Z,9.69
2023-03-31T01:52:56.551Z,8.55
2023-03-31T01:55:44.963Z,12.92
2023-03-31T01:58:21.546Z,7.22
2023-03-31T02:01:05.889Z,7.41
2023-03-31T02:03:47.433Z,9.12
2023-03-31T02:06:26.876Z,13.11
2023-03-31T02:09:19.566Z,9.88
2023-03-31T02:11:53.253Z,8.36
2023-03-31T02:14:29.525Z,8.17
2023-03-31T02:17:03.825Z,9.31
2023-03-31T02:19:41.041Z,9.88
2023-03-31T02:22:14.825Z,8.93
2023-03-31T02:24:46.490Z,7.22
2023-03-31T02:27:23.878Z,11.02
2023-03-31T02:29:56.275Z,10.64
2023-03-31T02:32:38.229Z,10.26
2023-03-31T02:35:17.022Z,11.97
2023-03-31T02:37:49.813Z,9.69
2023-03-31T02:40:23.163Z,9.69
2023-03-31T02:42:53.578Z,7.79
2023-03-31T02:45:43.121Z,5.89
2023-03-31T02:48:38.290Z,8.36
2023-03-31T02:51:09.134Z,8.74
2023-03-31T02:53:57.145Z,8.74
2023-03-31T02:57:09.425Z,9.50
2023-03-31T03:00:13.754Z,8.55
2023-03-31T03:02:54.816Z,8.36
2023-03-31T03:05:50.720Z,9.50
2023-03-31T03:08:43.633Z,7.98
2023-03-31T03:11:40.393Z,9.69
2023-03-31T03:14:39.795Z,10.26
2023-03-31T03:17:23.853Z,7.41
2023-03-31T03:19:59.184Z,7.22
2023-03-31T03:22:28.931Z,6.65
2023-03-31T03:24:58.747Z,8.17
2023-03-31T03:27:29.126Z,8.74
2023-03-31T03:29:59.177Z,8.74
2023-03-31T03:32:29.022Z,10.26
2023-03-31T03:34:58.964Z,8.93
2023-03-31T03:37:31.138Z,12.16
2023-03-31T03:40:00.465Z,9.12
2023-03-31T03:42:28.773Z,11.97
2023-03-31T03:44:57.551Z,11.40
2023-03-31T03:47:25.840Z,9.50
2023-03-31T03:49:54.218Z,8.74
2023-03-31T03:52:23.123Z,8.93
2023-03-31T03:54:51.613Z,5.89
2023-03-31T03:57:20.168Z,11.59
2023-03-31T03:59:48.447Z,8.17
2023-03-31T04:02:17.177Z,9.69
2023-03-31T04:04:47.850Z,9.12
2023-03-31T04:07:17.800Z,8.55
2023-03-31T04:09:47.503Z,7.03
2023-03-31T04:12:19.963Z,11.78
2023-03-31T04:14:49.686Z,7.60
2023-03-31T04:17:20.313Z,8.93
2023-03-31T04:19:50.798Z,8.93
2023-03-31T04:24:52.786Z,9.31
2023-03-31T04:27:23.212Z,9.50
2023-03-31T04:29:54.975Z,10.45
2023-03-31T04:32:23.497Z,9.69
2023-03-31T04:34:51.042Z,10.07
2023-03-31T04:37:19.627Z,9.69
2023-03-31T04:39:46.803Z,11.78
2023-03-31T04:42:17.760Z,9.88
2023-03-31T04:44:45.190Z,10.83
2023-03-31T04:47:13.564Z,8.36
2023-03-31T04:49:41.862Z,7.79
2023-03-31T04:52:10.252Z,7.60
2023-03-31T04:54:38.696Z,10.07
2023-03-31T04:57:07.266Z,7.98
2023-03-31T04:59:35.551Z,11.02
2023-03-31T05:02:03.998Z,9.69
2023-03-31T05:04:32.448Z,11.40
2023-03-31T05:07:01.003Z,10.64
2023-03-31T05:09:29.401Z,8.74
2023-03-31T05:11:57.910Z,9.88
2023-03-31T05:14:26.009Z,11.59
2023-03-31T05:16:58.264Z,8.17
2023-03-31T05:19:28.252Z,8.55
2023-03-31T05:21:58.029Z,12.16
2023-03-31T05:24:30.646Z,11.97
2023-03-31T05:27:00.441Z,13.11
2023-03-31T05:29:31.121Z,12.54
2023-03-31T05:32:01.867Z,8.17
2023-03-31T05:34:31.705Z,12.73
2023-03-31T05:37:01.500Z,11.59
2023-03-31T05:39:33.065Z,12.35
2023-03-31T05:42:03.494Z,7.98
2023-03-31T05:44:33.629Z,8.74
2023-03-31T05:47:03.834Z,11.97
2023-03-31T05:49:34.341Z,13.68
2023-03-31T05:52:07.235Z,11.21
2023-03-31T05:54:37.604Z,7.79
2023-03-31T05:57:07.544Z,8.36
2023-03-31T05:59:38.394Z,10.83
2023-03-31T06:02:12.486Z,13.87
2023-03-31T06:04:43.647Z,13.68
2023-03-31T06:07:15.033Z,13.68
2023-03-31T06:09:46.067Z,11.40
2023-03-31T06:12:16.458Z,10.26
2023-03-31T06:14:44.650Z,13.49
2023-03-31T06:17:13.199Z,10.26
2023-03-31T06:19:41.756Z,11.97
2023-03-31T06:22:11.486Z,12.54
2023-03-31T06:24:41.283Z,15.39
2023-03-31T06:27:11.105Z,8.36
2023-03-31T06:29:41.019Z,13.11
2023-03-31T06:32:11.783Z,11.40
2023-03-31T06:34:41.926Z,10.26
2023-03-31T06:37:11.714Z,15.39
2023-03-31T06:39:41.431Z,10.45
2023-03-31T06:42:14.018Z,12.35
2023-03-31T06:44:43.765Z,11.97
2023-03-31T06:47:13.495Z,12.54
2023-03-31T06:49:43.246Z,9.31
2023-03-31T06:52:13.041Z,8.55
2023-03-31T06:54:43.165Z,13.49
2023-03-31T06:57:13.567Z,11.21
2023-03-31T06:59:43.677Z,12.16
2023-03-31T07:02:13.479Z,13.87
2023-03-31T07:04:43.310Z,10.45
2023-03-31T07:07:13.189Z,7.98
2023-03-31T07:09:43.034Z,10.07
2023-03-31T07:12:18.039Z,11.97
2023-03-31T07:14:47.786Z,11.21
2023-03-31T07:17:17.632Z,12.54
2023-03-31T07:19:48.214Z,11.40
2023-03-31T07:22:18.111Z,8.74
2023-03-31T07:24:47.825Z,11.97
2023-03-31T07:27:17.611Z,9.50
2023-03-31T07:29:47.453Z,14.25
2023-03-31T07:32:17.553Z,11.78
2023-03-31T07:34:47.339Z,12.16
2023-03-31T07:37:17.398Z,10.07
2023-03-31T07:39:47.173Z,8.36
2023-03-31T07:42:17.647Z,8.93
2023-03-31T07:44:47.453Z,10.64
2023-03-31T07:47:15.972Z,8.74
2023-03-31T07:49:44.284Z,9.69
2023-03-31T07:52:14.044Z,10.45
2023-03-31T07:54:41.226Z,7.98
2023-03-31T07:57:10.181Z,6.84
2023-03-31T07:59:38.356Z,12.35
2023-03-31T08:02:07.353Z,10.83
2023-03-31T08:04:35.002Z,7.98
2023-03-31T08:07:03.855Z,8.36
2023-03-31T08:09:32.002Z,11.97
2023-03-31T08:12:00.408Z,12.73
2023-03-31T08:14:38.294Z,11.02
2023-03-31T08:17:11.410Z,8.74
2023-03-31T08:19:41.359Z,9.50
2023-03-31T08:22:11.568Z,13.87
2023-03-31T08:24:41.273Z,10.45
2023-03-31T08:27:12.242Z,8.55
2023-03-31T08:29:41.998Z,7.98
2023-03-31T08:32:09.668Z,9.12
2023-03-31T08:34:38.131Z,10.07
2023-03-31T08:37:06.402Z,8.36
2023-03-31T08:39:37.191Z,7.60
2023-03-31T08:42:25.634Z,10.64
2023-03-31T08:45:11.701Z,10.45
2023-03-31T08:47:44.112Z,10.26
2023-03-31T08:50:26.328Z,10.83
2023-03-31T08:53:13.762Z,7.98
2023-03-31T08:55:52.231Z,7.79
2023-03-31T08:58:43.533Z,7.98
2023-03-31T09:01:56.017Z,8.93
2023-03-31T09:04:32.484Z,7.98
2023-03-31T09:07:36.056Z,10.45
2023-03-31T09:10:58.196Z,8.93
2023-03-31T09:14:13.165Z,11.02
2023-03-31T09:16:59.836Z,8.55
2023-03-31T09:19:40.725Z,6.84
2023-03-31T09:22:22.705Z,8.74
2023-03-31T09:25:26.528Z,9.88
2023-03-31T09:28:00.091Z,8.55
2023-03-31T09:30:35.780Z,13.87
2023-03-31T09:33:17.886Z,10.26
2023-03-31T09:35:49.335Z,8.55
2023-03-31T09:38:20.416Z,11.78
2023-03-31T09:40:50.808Z,8.74
2023-03-31T09:43:31.504Z,7.98
2023-03-31T09:46:09.619Z,10.83
2023-03-31T09:48:44.993Z,10.07
2023-03-31T09:51:27.385Z,9.88
2023-03-31T09:54:13.589Z,10.45
2023-03-31T09:56:43.328Z,6.65
2023-03-31T09:59:24.279Z,8.36
2023-03-31T10:02:00.502Z,7.60
2023-03-31T10:04:35.713Z,8.36
2023-03-31T10:07:06.547Z,11.21
2023-03-31T10:09:39.432Z,10.07
2023-03-31T10:12:20.266Z,8.74
2023-03-31T10:15:11.952Z,6.84
2023-03-31T10:17:55.115Z,6.27
2023-03-31T10:20:39.173Z,8.74
2023-03-31T10:23:32.398Z,7.79
2023-03-31T10:26:04.792Z,10.83
2023-03-31T10:28:37.227Z,8.74
2023-03-31T10:31:08.606Z,7.98
2023-03-31T10:33:46.371Z,8.93
2023-03-31T10:36:21.276Z,8.93
2023-03-31T10:38:53.607Z,7.79
2023-03-31T10:41:28.270Z,7.22
2023-03-31T10:44:02.405Z,9.31
2023-03-31T10:46:50.347Z,6.65
2023-03-31T10:49:23.015Z,11.02
2023-03-31T10:52:03.073Z,6.84
2023-03-31T10:54:32.212Z,9.88
2023-03-31T10:57:05.595Z,5.89
2023-03-31T11:00:36.157Z,8.36
2023-03-31T11:03:20.421Z,9.69
2023-03-31T11:06:16.345Z,10.07
2023-03-31T11:09:00.185Z,7.79
2023-03-31T11:11:53.072Z,8.17
2023-03-31T11:14:56.680Z,11.40
2023-03-31T11:18:06.918Z,9.12
2023-03-31T11:21:16.969Z,11.02
2023-03-31T11:24:09.110Z,8.17
2023-03-31T11:27:17.178Z,10.26
2023-03-31T11:30:27.884Z,11.21
2023-03-31T11:33:32.714Z,10.83
2023-03-31T11:36:41.684Z,12.54
2023-03-31T11:39:35.988Z,11.59
2023-03-31T11:42:26.161Z,11.40
2023-03-31T11:45:07.283Z,12.16
2023-03-31T11:47:42.149Z,12.73
2023-03-31T11:50:22.405Z,9.50
2023-03-31T11:53:30.724Z,10.07
2023-03-31T11:56:04.987Z,7.22
2023-03-31T11:58:51.632Z,12.54
2023-03-31T12:01:47.384Z,11.02
2023-03-31T12:04:42.719Z,9.12
2023-03-31T12:07:34.549Z,11.02
2023-03-31T12:10:37.383Z,10.07
2023-03-31T12:13:09.981Z,11.02
2023-03-31T12:15:46.813Z,10.64
2023-03-31T12:18:25.358Z,9.69
2023-03-31T12:21:04.845Z,7.22
2023-03-31T12:23:44.298Z,7.60
2023-03-31T12:26:45.712Z,6.65
2023-03-31T12:29:39.780Z,8.74
2023-03-31T12:32:19.597Z,6.08
2023-03-31T12:35:18.141Z,8.36
2023-03-31T12:38:16.265Z,6.08
2023-03-31T12:41:02.755Z,5.70
2023-03-31T12:44:17.134Z,7.79
2023-03-31T12:47:08.438Z,8.55
2023-03-31T12:50:16.584Z,8.93
2023-03-31T12:53:05.710Z,10.64
2023-03-31T12:55:41.357Z,8.74
2023-03-31T12:58:32.333Z,8.74
2023-03-31T13:01:05.261Z,7.98
2023-03-31T13:03:35.385Z,7.79
2023-03-31T13:06:06.121Z,9.88
2023-03-31T13:09:08.741Z,8.93
2023-03-31T13:11:44.866Z,9.69
2023-03-31T13:14:24.414Z,7.60
2023-03-31T13:17:22.554Z,8.36
2023-03-31T13:19:54.533Z,6.84
2023-03-31T13:22:31.540Z,9.88
2023-03-31T13:25:41.393Z,9.69
2023-03-31T13:28:22.961Z,9.12
2023-03-31T13:31:02.021Z,7.98
2023-03-31T13:34:12.877Z,10.83
2023-03-31T13:37:46.528Z,9.69
2023-03-31T13:40:41.231Z,9.12
2023-03-31T13:43:32.354Z,11.02
2023-03-31T13:46:29.554Z,8.55
2023-03-31T13:49:24.558Z,8.55
2023-03-31T13:52:01.892Z,8.74
2023-03-31T13:54:59.133Z,10.07
2023-03-31T13:57:41.007Z,10.07
2023-03-31T14:00:42.234Z,11.21
2023-03-31T14:03:36.155Z,9.50
2023-03-31T14:06:30.450Z,7.41
2023-03-31T14:09:12.554Z,6.84
2023-03-31T14:11:40.439Z,9.69
2023-03-31T14:14:16.096Z,7.98
2023-03-31T14:17:03.619Z,8.17
2023-03-31T14:20:22.762Z,7.22
2023-03-31T14:23:07.990Z,8.93
2023-03-31T14:25:48.127Z,6.65
2023-03-31T14:28:41.687Z,9.69
2023-03-31T14:31:24.226Z,5.51
2023-03-31T14:34:41.846Z,6.65
2023-03-31T14:37:21.754Z,6.08
2023-03-31T14:39:56.635Z,5.89
2023-03-31T14:42:39.778Z,5.89
2023-03-31T14:45:25.292Z,5.70
2023-03-31T14:48:19.923Z,6.84
2023-03-31T14:50:47.399Z,5.51
2023-03-31T14:53:18.042Z,7.41
2023-03-31T14:55:58.224Z,9.69
2023-03-31T14:58:38.884Z,5.13
2023-03-31T15:01:16.674Z,7.03
2023-03-31T15:03:47.306Z,6.65
2023-03-31T15:06:17.636Z,7.22
2023-03-31T15:08:47.786Z,6.08
2023-03-31T15:11:21.825Z,7.98
2023-03-31T15:16:43.563Z,6.27
2023-03-31T15:19:27.670Z,5.89
2023-03-31T15:22:16.176Z,7.41
2023-03-31T15:24:49.511Z,9.12
2023-03-31T15:27:36.879Z,7.41
2023-03-31T15:30:23.239Z,6.84
2023-03-31T15:32:56.854Z,8.36
2023-03-31T15:35:37.142Z,8.55
2023-03-31T15:38:07.110Z,7.03
2023-03-31T15:40:43.074Z,9.12
2023-03-31T15:43:28.656Z,10.64
2023-03-31T15:45:59.644Z,9.69
2023-03-31T15:48:48.414Z,9.12
2023-03-31T15:51:31.128Z,9.88
2023-03-31T15:54:01.416Z,9.12
2023-03-31T15:56:42.326Z,9.31
2023-03-31T15:59:27.554Z,7.60
2023-03-31T16:02:01.874Z,11.40
2023-03-31T16:04:33.367Z,17.48
2023-03-31T16:07:30.245Z,15.39
2023-03-31T16:10:19.248Z,12.16
2023-03-31T16:13:09.414Z,9.88
2023-03-31T16:15:49.702Z,11.78
2023-03-31T16:18:38.185Z,15.39
2023-03-31T16:21:09.978Z,11.78
2023-03-31T16:23:41.662Z,12.54
2023-03-31T16:26:13.197Z,16.72
2023-03-31T16:28:52.917Z,10.64
2023-03-31T16:31:40.903Z,11.97
2023-03-31T16:34:11.467Z,13.68
2023-03-31T16:36:41.360Z,11.40
2023-03-31T16:39:11.372Z,11.78
2023-03-31T16:41:41.185Z,10.64
2023-03-31T16:44:11.049Z,15.20
2023-03-31T16:46:40.862Z,19.95
2023-03-31T16:49:10.740Z,16.53
2023-03-31T16:51:40.647Z,8.74
2023-03-31T16:54:11.602Z,10.45
2023-03-31T16:56:41.947Z,9.12
2023-03-31T16:59:11.740Z,10.07
2023-03-31T17:01:41.839Z,9.88
2023-03-31T17:04:12.347Z,7.79
2023-03-31T17:06:42.517Z,12.73
2023-03-31T17:09:12.354Z,11.78
2023-03-31T17:11:42.313Z,13.11
2023-03-31T17:14:12.160Z,8.74
2023-03-31T17:16:48.065Z,10.26
2023-03-31T17:19:18.589Z,8.55
2023-03-31T17:21:48.307Z,11.97
2023-03-31T17:24:18.128Z,15.20
2023-03-31T17:26:48.176Z,13.30
2023-03-31T17:29:18.309Z,16.91
2023-03-31T17:31:48.307Z,25.65
2023-03-31T17:34:18.526Z,18.43
2023-03-31T17:36:47.371Z,25.84
2023-03-31T17:39:15.818Z,21.09
2023-03-31T17:41:43.814Z,15.58
2023-03-31T17:44:12.258Z,13.87
2023-03-31T17:46:40.719Z,14.63
2023-03-31T17:49:09.032Z,19.00
2023-03-31T17:51:38.008Z,17.10
2023-03-31T17:54:06.271Z,13.49
2023-03-31T17:56:34.637Z,12.92
2023-03-31T17:59:03.536Z,9.31
2023-03-31T18:01:31.761Z,11.59
2023-03-31T18:04:00.153Z,12.73
2023-03-31T18:06:30.580Z,9.31
2023-03-31T18:08:58.337Z,12.35
2023-03-31T18:11:27.794Z,10.64
2023-03-31T18:13:56.123Z,11.02
2023-03-31T18:16:23.690Z,11.02
2023-03-31T18:18:52.111Z,10.07
2023-03-31T18:21:20.864Z,7.41
2023-03-31T18:23:52.628Z,10.64
2023-03-31T18:26:25.964Z,9.88
2023-03-31T18:28:55.991Z,9.69
2023-03-31T18:31:27.256Z,8.36
2023-03-31T18:33:57.969Z,11.97
2023-03-31T18:36:28.681Z,9.50
2023-03-31T18:38:58.873Z,10.45
2023-03-31T18:41:29.832Z,11.21
2023-03-31T18:44:00.455Z,11.21
2023-03-31T18:46:30.490Z,9.12
2023-03-31T18:49:00.619Z,8.74
2023-03-31T18:51:30.537Z,11.59
2023-03-31T18:54:00.291Z,11.97
2023-03-31T18:56:30.817Z,17.29
2023-03-31T18:59:03.869Z,12.35
2023-03-31T19:01:35.139Z,19.00
2023-03-31T19:04:04.922Z,19.00
2023-03-31T19:06:35.650Z,20.14
2023-03-31T19:09:06.020Z,19.19
2023-03-31T19:11:37.762Z,24.13
2023-03-31T19:14:07.541Z,19.00
2023-03-31T19:16:42.225Z,18.43
2023-03-31T19:19:12.269Z,19.76
2023-03-31T19:21:42.824Z,18.81
2023-03-31T19:24:12.653Z,16.53
2023-03-31T19:26:43.678Z,17.10
2023-03-31T19:29:13.802Z,16.91
2023-03-31T19:31:42.207Z,16.15
2023-03-31T19:34:11.780Z,14.06
2023-03-31T19:36:39.176Z,15.39
2023-03-31T19:39:08.254Z,13.68
2023-03-31T19:41:36.352Z,13.87
2023-03-31T19:44:04.680Z,16.15
2023-03-31T19:46:33.016Z,18.62
2023-03-31T19:49:01.508Z,15.39
2023-03-31T19:51:29.833Z,16.53
2023-03-31T19:53:58.624Z,21.66
2023-03-31T19:56:28.331Z,14.63
2023-03-31T19:58:55.391Z,15.01
2023-03-31T20:01:27.899Z,14.25
2023-03-31T20:03:57.628Z,15.20
2023-03-31T20:06:30.748Z,13.30
2023-03-31T20:09:02.354Z,17.86
2023-03-31T20:11:32.082Z,16.15
2023-03-31T20:14:02.663Z,16.15
2023-03-31T20:16:32.925Z,16.15
2023-03-31T20:19:06.144Z,15.39
2023-03-31T20:21:37.848Z,16.15
2023-03-31T20:24:06.692Z,13.30
2023-03-31T20:26:36.284Z,16.15
2023-03-31T20:29:05.481Z,14.63
2023-03-31T20:31:37.714Z,13.30
2023-03-31T20:34:12.101Z,15.96
2023-03-31T20:36:45.664Z,13.87
2023-03-31T20:39:16.448Z,14.25
2023-03-31T20:41:47.303Z,14.25
2023-03-31T20:44:17.424Z,11.97
2023-03-31T20:46:47.560Z,13.68
2023-03-31T20:49:17.751Z,11.21
2023-03-31T20:51:49.095Z,13.49
2023-03-31T20:54:18.864Z,12.54
2023-03-31T20:56:50.434Z,10.64
2023-03-31T20:59:21.679Z,9.12
2023-03-31T21:01:51.704Z,11.21
2023-03-31T21:04:21.871Z,11.02
2023-03-31T21:06:51.793Z,12.16
2023-03-31T21:09:21.934Z,10.26
2023-03-31T21:11:48.713Z,9.31
2023-03-31T21:14:17.354Z,8.93
2023-03-31T21:16:46.852Z,9.12
2023-03-31T21:19:16.503Z,6.84
2023-03-31T21:21:46.308Z,7.98
2023-03-31T21:24:14.869Z,11.40
2023-03-31T21:26:43.163Z,8.93
2023-03-31T21:29:11.666Z,8.17
2023-03-31T21:31:41.556Z,6.27
2023-03-31T21:34:11.390Z,10.83
2023-03-31T21:36:39.895Z,7.98
2023-03-31T21:39:09.735Z,10.83
2023-03-31T21:41:39.675Z,7.41
2023-03-31T21:44:10.030Z,7.41
2023-03-31T21:46:41.136Z,6.46
2023-03-31T21:49:11.179Z,7.79
2023-03-31T21:51:40.918Z,6.27
2023-03-31T21:54:11.653Z,6.46
2023-03-31T21:56:41.426Z,7.22
2023-03-31T21:59:11.480Z,5.89
2023-03-31T22:01:41.585Z,6.46
2023-03-31T22:04:11.928Z,6.08
2023-03-31T22:06:41.808Z,6.84
2023-03-31T22:09:11.665Z,7.03
2023-03-31T22:11:41.466Z,7.98
2023-03-31T22:14:11.684Z,6.08
2023-03-31T22:16:42.696Z,6.84
2023-03-31T22:19:13.310Z,6.65
2023-03-31T22:21:44.009Z,8.93
2023-03-31T22:24:13.992Z,7.98
2023-03-31T22:26:43.892Z,7.98
2023-03-31T22:29:16.306Z,7.79
2023-03-31T22:31:46.224Z,7.98
2023-03-31T22:34:18.923Z,8.55
2023-03-31T22:36:48.635Z,7.98
2023-03-31T22:39:19.446Z,7.41
2023-03-31T22:41:50.398Z,7.60
2023-03-31T22:44:20.303Z,7.22
2023-03-31T22:46:51.084Z,8.36
2023-03-31T22:49:21.692Z,7.03
2023-03-31T22:51:54.500Z,9.12
2023-03-31T22:54:24.273Z,7.60
2023-03-31T22:56:54.511Z,7.03
2023-03-31T22:59:24.528Z,7.60
2023-03-31T23:01:54.548Z,7.98
2023-03-31T23:04:24.525Z,7.41
2023-03-31T23:06:55.106Z,9.50
2023-03-31T23:09:25.493Z,8.17
2023-03-31T23:11:53.462Z,7.60
2023-03-31T23:14:21.718Z,5.89
2023-03-31T23:16:51.825Z,8.36
2023-03-31T23:19:21.807Z,7.60
2023-03-31T23:21:51.197Z,7.22
2023-03-31T23:24:21.040Z,7.03
2023-03-31T23:26:50.843Z,7.41
2023-03-31T23:29:21.286Z,6.65
2023-03-31T23:31:51.489Z,9.88
2023-03-31T23:34:21.430Z,7.79
2023-03-31T23:36:52.826Z,6.08
2023-03-31T23:39:22.633Z,7.98
2023-03-31T23:41:53.544Z,9.50
2023-03-31T23:44:23.351Z,8.74
2023-03-31T23:46:53.168Z,7.03
2023-03-31T23:49:21.567Z,8.55
2023-03-31T23:51:49.985Z,6.65
2023-03-31T23:54:18.395Z,7.79
2023-03-31T23:56:46.943Z,6.84
2023-03-31T23:59:16.608Z,6.65
